sensor_id;sensor_type;location;lat;lon;timestamp;P1;durP1;ratioP1;P2;durP2;ratioP2
77522;SDS011;66637;-29.628;-49.938;2023-10-08T00:01:55;22.08;;;2.50;;
77522;SDS011;66637;-29.628;-49.938;2023-10-08T00:04:28;27.73;;;4.13;;
77522;SDS011;66637;-29.628;-49.938;2023-10-08T00:07:00;47.55;;;5.05;;
77522;SDS011;66637;-29.628;-49.938;2023-10-08T00:09:30;36.50;;;4.20;;
77522;SDS011;66637;-29.628;-49.938;2023-10-08T00:12:07;34.97;;;4.97;;
77522;SDS011;66637;-29.628;-49.938;2023-10-08T00:14:39;65.78;;;8.45;;
77522;SDS011;66637;-29.628;-49.938;2023-10-08T00:17:16;98.80;;;11.20;;
77522;SDS011;66637;-29.628;-49.938;2023-10-08T00:19:46;101.47;;;11.35;;
77522;SDS011;66637;-29.628;-49.938;2023-10-08T00:22:23;80.40;;;9.60;;
77522;SDS011;66637;-29.628;-49.938;2023-10-08T00:24:56;82.35;;;9.63;;
77522;SDS011;66637;-29.628;-49.938;2023-10-08T00:27:29;67.22;;;8.50;;
77522;SDS011;66637;-29.628;-49.938;2023-10-08T00:30:12;52.67;;;6.72;;
77522;SDS011;66637;-29.628;-49.938;2023-10-08T00:35:20;48.38;;;5.82;;
77522;SDS011;66637;-29.628;-49.938;2023-10-08T00:37:52;42.40;;;6.35;;
77522;SDS011;66637;-29.628;-49.938;2023-10-08T00:40:47;34.72;;;4.40;;
77522;SDS011;66637;-29.628;-49.938;2023-10-08T00:43:34;31.65;;;3.92;;
77522;SDS011;66637;-29.628;-49.938;2023-10-08T00:46:07;24.13;;;3.30;;
77522;SDS011;66637;-29.628;-49.938;2023-10-08T00:48:49;22.20;;;3.80;;
77522;SDS011;66637;-29.628;-49.938;2023-10-08T00:51:25;24.63;;;3.60;;
77522;SDS011;66637;-29.628;-49.938;2023-10-08T00:54:02;20.15;;;3.13;;
77522;SDS011;66637;-29.628;-49.938;2023-10-08T00:56:37;20.17;;;3.20;;
77522;SDS011;66637;-29.628;-49.938;2023-10-08T00:59:27;115.60;;;14.35;;
77522;SDS011;66637;-29.628;-49.938;2023-10-08T01:02:04;139.98;;;16.17;;
77522;SDS011;66637;-29.628;-49.938;2023-10-08T01:04:37;124.68;;;15.82;;
77522;SDS011;66637;-29.628;-49.938;2023-10-08T01:07:08;86.03;;;11.52;;
77522;SDS011;66637;-29.628;-49.938;2023-10-08T01:09:44;84.13;;;10.55;;
77522;SDS011;66637;-29.628;-49.938;2023-10-08T01:12:21;81.22;;;10.60;;
77522;SDS011;66637;-29.628;-49.938;2023-10-08T01:14:54;73.10;;;9.75;;
77522;SDS011;66637;-29.628;-49.938;2023-10-08T01:17:38;54.28;;;6.75;;
77522;SDS011;66637;-29.628;-49.938;2023-10-08T01:20:18;39.88;;;5.30;;
77522;SDS011;66637;-29.628;-49.938;2023-10-08T01:23:07;27.15;;;4.80;;
77522;SDS011;66637;-29.628;-49.938;2023-10-08T01:25:43;21.20;;;4.60;;
77522;SDS011;66637;-29.628;-49.938;2023-10-08T01:28:27;19.10;;;3.83;;
77522;SDS011;66637;-29.628;-49.938;2023-10-08T01:31:00;17.85;;;3.58;;
77522;SDS011;66637;-29.628;-49.938;2023-10-08T01:33:36;20.35;;;3.40;;
77522;SDS011;66637;-29.628;-49.938;2023-10-08T01:36:08;19.85;;;3.88;;
77522;SDS011;66637;-29.628;-49.938;2023-10-08T01:38:43;21.63;;;3.72;;
77522;SDS011;66637;-29.628;-49.938;2023-10-08T01:43:48;14.57;;;3.03;;
77522;SDS011;66637;-29.628;-49.938;2023-10-08T01:46:20;17.40;;;3.38;;
77522;SDS011;66637;-29.628;-49.938;2023-10-08T01:48:54;18.48;;;3.33;;
77522;SDS011;66637;-29.628;-49.938;2023-10-08T01:51:41;15.07;;;3.22;;
77522;SDS011;66637;-29.628;-49.938;2023-10-08T01:54:16;17.98;;;2.97;;
77522;SDS011;66637;-29.628;-49.938;2023-10-08T01:56:51;17.80;;;3.47;;
77522;SDS011;66637;-29.628;-49.938;2023-10-08T01:59:22;12.55;;;3.10;;
77522;SDS011;66637;-29.628;-49.938;2023-10-08T02:01:54;17.38;;;3.30;;
77522;SDS011;66637;-29.628;-49.938;2023-10-08T02:04:27;13.40;;;3.20;;
77522;SDS011;66637;-29.628;-49.938;2023-10-08T02:06:59;16.20;;;2.83;;
77522;SDS011;66637;-29.628;-49.938;2023-10-08T02:09:30;17.02;;;3.65;;
77522;SDS011;66637;-29.628;-49.938;2023-10-08T02:12:02;20.65;;;5.43;;
77522;SDS011;66637;-29.628;-49.938;2023-10-08T02:14:33;14.02;;;2.63;;
77522;SDS011;66637;-29.628;-49.938;2023-10-08T02:17:05;16.10;;;2.38;;
77522;SDS011;66637;-29.628;-49.938;2023-10-08T02:19:35;13.88;;;2.53;;
77522;SDS011;66637;-29.628;-49.938;2023-10-08T02:22:07;23.35;;;3.08;;
77522;SDS011;66637;-29.628;-49.938;2023-10-08T02:24:39;25.80;;;3.83;;
77522;SDS011;66637;-29.628;-49.938;2023-10-08T02:27:09;47.08;;;5.93;;
77522;SDS011;66637;-29.628;-49.938;2023-10-08T02:29:40;59.80;;;7.15;;
77522;SDS011;66637;-29.628;-49.938;2023-10-08T02:32:11;71.88;;;9.68;;
77522;SDS011;66637;-29.628;-49.938;2023-10-08T02:34:43;75.63;;;9.73;;
77522;SDS011;66637;-29.628;-49.938;2023-10-08T02:37:14;32.28;;;5.55;;
77522;SDS011;66637;-29.628;-49.938;2023-10-08T02:39:44;24.45;;;3.47;;
77522;SDS011;66637;-29.628;-49.938;2023-10-08T02:42:14;16.00;;;2.85;;
77522;SDS011;66637;-29.628;-49.938;2023-10-08T02:44:45;14.27;;;2.72;;
77522;SDS011;66637;-29.628;-49.938;2023-10-08T02:47:16;11.65;;;3.08;;
77522;SDS011;66637;-29.628;-49.938;2023-10-08T02:49:50;14.75;;;3.03;;
77522;SDS011;66637;-29.628;-49.938;2023-10-08T02:52:21;15.73;;;4.78;;
77522;SDS011;66637;-29.628;-49.938;2023-10-08T02:54:52;17.38;;;4.28;;
77522;SDS011;66637;-29.628;-49.938;2023-10-08T02:57:22;10.02;;;2.78;;
77522;SDS011;66637;-29.628;-49.938;2023-10-08T02:59:53;11.70;;;2.70;;
77522;SDS011;66637;-29.628;-49.938;2023-10-08T03:02:23;11.57;;;2.03;;
77522;SDS011;66637;-29.628;-49.938;2023-10-08T03:04:54;11.60;;;1.90;;
77522;SDS011;66637;-29.628;-49.938;2023-10-08T03:07:26;16.15;;;2.10;;
77522;SDS011;66637;-29.628;-49.938;2023-10-08T03:10:02;15.50;;;2.78;;
77522;SDS011;66637;-29.628;-49.938;2023-10-08T03:12:35;17.60;;;3.08;;
77522;SDS011;66637;-29.628;-49.938;2023-10-08T03:15:06;176.32;;;18.60;;
77522;SDS011;66637;-29.628;-49.938;2023-10-08T03:17:43;174.65;;;20.40;;
77522;SDS011;66637;-29.628;-49.938;2023-10-08T03:20:27;174.48;;;21.35;;
77522;SDS011;66637;-29.628;-49.938;2023-10-08T03:23:18;126.80;;;16.58;;
77522;SDS011;66637;-29.628;-49.938;2023-10-08T03:26:03;114.13;;;15.68;;
77522;SDS011;66637;-29.628;-49.938;2023-10-08T03:28:34;93.70;;;11.05;;
77522;SDS011;66637;-29.628;-49.938;2023-10-08T03:31:05;95.15;;;11.13;;
77522;SDS011;66637;-29.628;-49.938;2023-10-08T03:33:44;83.43;;;11.38;;
77522;SDS011;66637;-29.628;-49.938;2023-10-08T03:36:18;75.05;;;10.80;;
77522;SDS011;66637;-29.628;-49.938;2023-10-08T03:38:51;91.10;;;11.73;;
77522;SDS011;66637;-29.628;-49.938;2023-10-08T03:41:23;77.97;;;10.93;;
77522;SDS011;66637;-29.628;-49.938;2023-10-08T03:44:00;91.80;;;12.63;;
77522;SDS011;66637;-29.628;-49.938;2023-10-08T03:46:42;95.57;;;11.40;;
77522;SDS011;66637;-29.628;-49.938;2023-10-08T03:49:12;89.22;;;11.20;;
77522;SDS011;66637;-29.628;-49.938;2023-10-08T03:51:52;151.75;;;18.00;;
77522;SDS011;66637;-29.628;-49.938;2023-10-08T03:54:23;136.15;;;16.98;;
77522;SDS011;66637;-29.628;-49.938;2023-10-08T03:57:03;93.28;;;12.25;;
77522;SDS011;66637;-29.628;-49.938;2023-10-08T03:59:42;83.03;;;10.75;;
77522;SDS011;66637;-29.628;-49.938;2023-10-08T04:02:12;67.90;;;8.80;;
77522;SDS011;66637;-29.628;-49.938;2023-10-08T04:04:44;58.63;;;8.60;;
77522;SDS011;66637;-29.628;-49.938;2023-10-08T04:07:21;57.20;;;8.55;;
77522;SDS011;66637;-29.628;-49.938;2023-10-08T04:10:02;59.08;;;8.38;;
77522;SDS011;66637;-29.628;-49.938;2023-10-08T04:12:38;54.53;;;8.93;;
77522;SDS011;66637;-29.628;-49.938;2023-10-08T04:15:13;71.63;;;9.55;;
77522;SDS011;66637;-29.628;-49.938;2023-10-08T04:17:45;84.90;;;11.98;;
77522;SDS011;66637;-29.628;-49.938;2023-10-08T04:20:20;74.22;;;11.65;;
77522;SDS011;66637;-29.628;-49.938;2023-10-08T04:23:04;127.18;;;16.63;;
77522;SDS011;66637;-29.628;-49.938;2023-10-08T04:25:50;146.50;;;18.65;;
77522;SDS011;66637;-29.628;-49.938;2023-10-08T04:28:24;122.10;;;14.68;;
77522;SDS011;66637;-29.628;-49.938;2023-10-08T04:30:58;96.30;;;12.23;;
77522;SDS011;66637;-29.628;-49.938;2023-10-08T04:33:30;137.27;;;16.48;;
77522;SDS011;66637;-29.628;-49.938;2023-10-08T04:36:03;99.35;;;13.07;;
77522;SDS011;66637;-29.628;-49.938;2023-10-08T04:38:37;126.28;;;15.68;;
77522;SDS011;66637;-29.628;-49.938;2023-10-08T04:41:10;118.32;;;14.30;;
77522;SDS011;66637;-29.628;-49.938;2023-10-08T04:43:41;138.90;;;14.20;;
77522;SDS011;66637;-29.628;-49.938;2023-10-08T04:46:12;109.45;;;11.85;;
77522;SDS011;66637;-29.628;-49.938;2023-10-08T04:48:48;106.53;;;13.40;;
77522;SDS011;66637;-29.628;-49.938;2023-10-08T04:51:19;98.07;;;13.05;;
77522;SDS011;66637;-29.628;-49.938;2023-10-08T04:53:52;82.47;;;10.48;;
77522;SDS011;66637;-29.628;-49.938;2023-10-08T04:56:24;80.43;;;9.70;;
77522;SDS011;66637;-29.628;-49.938;2023-10-08T04:58:58;90.35;;;10.57;;
77522;SDS011;66637;-29.628;-49.938;2023-10-08T05:01:28;68.68;;;9.25;;
77522;SDS011;66637;-29.628;-49.938;2023-10-08T05:04:10;118.10;;;14.57;;
77522;SDS011;66637;-29.628;-49.938;2023-10-08T05:06:59;96.95;;;9.77;;
77522;SDS011;66637;-29.628;-49.938;2023-10-08T05:09:51;68.03;;;8.68;;
77522;SDS011;66637;-29.628;-49.938;2023-10-08T05:12:34;95.93;;;12.50;;
77522;SDS011;66637;-29.628;-49.938;2023-10-08T05:15:14;110.88;;;12.60;;
77522;SDS011;66637;-29.628;-49.938;2023-10-08T05:17:46;95.53;;;11.45;;
77522;SDS011;66637;-29.628;-49.938;2023-10-08T05:20:20;112.60;;;14.10;;
77522;SDS011;66637;-29.628;-49.938;2023-10-08T05:23:28;120.07;;;15.02;;
77522;SDS011;66637;-29.628;-49.938;2023-10-08T05:25:58;121.47;;;15.13;;
77522;SDS011;66637;-29.628;-49.938;2023-10-08T05:28:38;127.00;;;16.27;;
77522;SDS011;66637;-29.628;-49.938;2023-10-08T05:31:28;125.03;;;14.50;;
77522;SDS011;66637;-29.628;-49.938;2023-10-08T05:34:21;113.80;;;14.95;;
77522;SDS011;66637;-29.628;-49.938;2023-10-08T05:37:02;119.38;;;14.43;;
77522;SDS011;66637;-29.628;-49.938;2023-10-08T05:39:37;123.13;;;15.05;;
77522;SDS011;66637;-29.628;-49.938;2023-10-08T05:42:08;109.40;;;13.63;;
77522;SDS011;66637;-29.628;-49.938;2023-10-08T05:44:57;112.63;;;14.35;;
77522;SDS011;66637;-29.628;-49.938;2023-10-08T05:47:43;100.97;;;12.73;;
77522;SDS011;66637;-29.628;-49.938;2023-10-08T05:50:34;134.32;;;17.02;;
77522;SDS011;66637;-29.628;-49.938;2023-10-08T05:53:25;159.32;;;18.77;;
77522;SDS011;66637;-29.628;-49.938;2023-10-08T05:56:22;139.23;;;16.00;;
77522;SDS011;66637;-29.628;-49.938;2023-10-08T05:58:58;95.05;;;12.10;;
77522;SDS011;66637;-29.628;-49.938;2023-10-08T06:01:48;42.20;;;5.75;;
77522;SDS011;66637;-29.628;-49.938;2023-10-08T06:04:28;35.00;;;5.03;;
77522;SDS011;66637;-29.628;-49.938;2023-10-08T06:07:21;30.73;;;4.60;;
77522;SDS011;66637;-29.628;-49.938;2023-10-08T06:10:03;31.77;;;4.38;;
77522;SDS011;66637;-29.628;-49.938;2023-10-08T06:12:53;31.98;;;4.80;;
77522;SDS011;66637;-29.628;-49.938;2023-10-08T06:15:41;44.42;;;5.20;;
77522;SDS011;66637;-29.628;-49.938;2023-10-08T06:20:57;44.58;;;6.55;;
77522;SDS011;66637;-29.628;-49.938;2023-10-08T06:23:39;72.85;;;8.73;;
77522;SDS011;66637;-29.628;-49.938;2023-10-08T06:28:44;109.88;;;14.23;;
77522;SDS011;66637;-29.628;-49.938;2023-10-08T06:31:14;127.95;;;15.85;;
77522;SDS011;66637;-29.628;-49.938;2023-10-08T06:33:55;112.90;;;15.55;;
77522;SDS011;66637;-29.628;-49.938;2023-10-08T06:36:26;120.60;;;14.23;;
77522;SDS011;66637;-29.628;-49.938;2023-10-08T06:38:59;121.82;;;14.98;;
77522;SDS011;66637;-29.628;-49.938;2023-10-08T06:41:30;128.32;;;16.50;;
77522;SDS011;66637;-29.628;-49.938;2023-10-08T06:44:16;98.22;;;12.40;;
77522;SDS011;66637;-29.628;-49.938;2023-10-08T06:46:48;112.90;;;12.85;;
77522;SDS011;66637;-29.628;-49.938;2023-10-08T06:49:23;106.25;;;14.30;;
77522;SDS011;66637;-29.628;-49.938;2023-10-08T06:51:53;131.63;;;15.65;;
77522;SDS011;66637;-29.628;-49.938;2023-10-08T06:54:24;129.30;;;15.80;;
77522;SDS011;66637;-29.628;-49.938;2023-10-08T06:57:03;137.07;;;15.98;;
77522;SDS011;66637;-29.628;-49.938;2023-10-08T06:59:34;107.00;;;12.35;;
77522;SDS011;66637;-29.628;-49.938;2023-10-08T07:02:09;98.70;;;11.20;;
77522;SDS011;66637;-29.628;-49.938;2023-10-08T07:04:41;89.35;;;11.85;;
77522;SDS011;66637;-29.628;-49.938;2023-10-08T07:07:13;92.22;;;11.38;;
77522;SDS011;66637;-29.628;-49.938;2023-10-08T07:09:48;107.35;;;12.98;;
77522;SDS011;66637;-29.628;-49.938;2023-10-08T07:12:21;81.40;;;11.02;;
77522;SDS011;66637;-29.628;-49.938;2023-10-08T07:14:54;110.10;;;13.60;;
77522;SDS011;66637;-29.628;-49.938;2023-10-08T07:17:28;100.35;;;11.60;;
77522;SDS011;66637;-29.628;-49.938;2023-10-08T07:20:10;95.00;;;11.07;;
77522;SDS011;66637;-29.628;-49.938;2023-10-08T07:22:43;114.72;;;12.05;;
77522;SDS011;66637;-29.628;-49.938;2023-10-08T07:25:13;67.80;;;10.23;;
77522;SDS011;66637;-29.628;-49.938;2023-10-08T07:27:45;106.18;;;11.68;;
77522;SDS011;66637;-29.628;-49.938;2023-10-08T07:30:16;84.00;;;11.20;;
77522;SDS011;66637;-29.628;-49.938;2023-10-08T07:32:56;104.55;;;12.05;;
77522;SDS011;66637;-29.628;-49.938;2023-10-08T07:35:29;74.28;;;10.80;;
77522;SDS011;66637;-29.628;-49.938;2023-10-08T07:38:00;89.63;;;10.80;;
77522;SDS011;66637;-29.628;-49.938;2023-10-08T07:40:32;93.90;;;10.52;;
77522;SDS011;66637;-29.628;-49.938;2023-10-08T07:43:06;70.65;;;8.80;;
77522;SDS011;66637;-29.628;-49.938;2023-10-08T07:45:39;60.75;;;7.90;;
77522;SDS011;66637;-29.628;-49.938;2023-10-08T07:48:14;46.75;;;6.20;;
77522;SDS011;66637;-29.628;-49.938;2023-10-08T07:50:45;40.15;;;5.55;;
77522;SDS011;66637;-29.628;-49.938;2023-10-08T07:53:16;31.90;;;4.25;;
77522;SDS011;66637;-29.628;-49.938;2023-10-08T07:55:50;28.73;;;4.18;;
77522;SDS011;66637;-29.628;-49.938;2023-10-08T07:58:21;23.10;;;3.25;;
77522;SDS011;66637;-29.628;-49.938;2023-10-08T08:00:52;24.70;;;3.35;;
77522;SDS011;66637;-29.628;-49.938;2023-10-08T08:03:24;20.60;;;3.58;;
77522;SDS011;66637;-29.628;-49.938;2023-10-08T08:05:55;23.52;;;3.20;;
77522;SDS011;66637;-29.628;-49.938;2023-10-08T08:08:26;20.08;;;3.22;;
77522;SDS011;66637;-29.628;-49.938;2023-10-08T08:10:58;20.08;;;2.78;;
77522;SDS011;66637;-29.628;-49.938;2023-10-08T08:13:34;17.70;;;3.22;;
77522;SDS011;66637;-29.628;-49.938;2023-10-08T08:16:05;18.65;;;2.95;;
77522;SDS011;66637;-29.628;-49.938;2023-10-08T08:18:50;20.55;;;3.17;;
77522;SDS011;66637;-29.628;-49.938;2023-10-08T08:21:22;28.30;;;2.92;;
77522;SDS011;66637;-29.628;-49.938;2023-10-08T08:23:53;21.38;;;2.85;;
77522;SDS011;66637;-29.628;-49.938;2023-10-08T08:26:34;233.80;;;25.10;;
77522;SDS011;66637;-29.628;-49.938;2023-10-08T08:29:30;53.75;;;5.95;;
77522;SDS011;66637;-29.628;-49.938;2023-10-08T08:32:05;32.60;;;4.38;;
77522;SDS011;66637;-29.628;-49.938;2023-10-08T08:34:38;32.15;;;3.90;;
77522;SDS011;66637;-29.628;-49.938;2023-10-08T08:37:13;28.98;;;4.05;;
77522;SDS011;66637;-29.628;-49.938;2023-10-08T08:39:43;133.15;;;15.48;;
77522;SDS011;66637;-29.628;-49.938;2023-10-08T08:42:15;169.60;;;22.25;;
77522;SDS011;66637;-29.628;-49.938;2023-10-08T08:44:53;157.52;;;18.98;;
77522;SDS011;66637;-29.628;-49.938;2023-10-08T08:47:28;142.32;;;17.60;;
77522;SDS011;66637;-29.628;-49.938;2023-10-08T08:50:04;112.28;;;14.05;;
77522;SDS011;66637;-29.628;-49.938;2023-10-08T08:52:39;104.10;;;13.02;;
77522;SDS011;66637;-29.628;-49.938;2023-10-08T08:55:11;129.02;;;15.13;;
77522;SDS011;66637;-29.628;-49.938;2023-10-08T08:57:47;152.75;;;19.42;;
77522;SDS011;66637;-29.628;-49.938;2023-10-08T09:00:20;151.30;;;20.83;;
77522;SDS011;66637;-29.628;-49.938;2023-10-08T09:02:52;151.60;;;18.00;;
77522;SDS011;66637;-29.628;-49.938;2023-10-08T09:05:26;140.25;;;18.92;;
77522;SDS011;66637;-29.628;-49.938;2023-10-08T09:08:04;133.20;;;17.15;;
77522;SDS011;66637;-29.628;-49.938;2023-10-08T09:10:36;108.65;;;13.23;;
77522;SDS011;66637;-29.628;-49.938;2023-10-08T09:13:20;120.85;;;15.20;;
77522;SDS011;66637;-29.628;-49.938;2023-10-08T09:16:13;97.40;;;12.80;;
77522;SDS011;66637;-29.628;-49.938;2023-10-08T09:18:48;104.07;;;13.98;;
77522;SDS011;66637;-29.628;-49.938;2023-10-08T09:21:20;105.50;;;14.30;;
77522;SDS011;66637;-29.628;-49.938;2023-10-08T09:23:53;99.22;;;13.73;;
77522;SDS011;66637;-29.628;-49.938;2023-10-08T09:26:24;114.40;;;15.85;;
77522;SDS011;66637;-29.628;-49.938;2023-10-08T09:31:32;131.00;;;15.38;;
77522;SDS011;66637;-29.628;-49.938;2023-10-08T09:34:05;128.10;;;15.40;;
77522;SDS011;66637;-29.628;-49.938;2023-10-08T09:36:38;90.78;;;11.60;;
77522;SDS011;66637;-29.628;-49.938;2023-10-08T09:39:12;99.90;;;12.07;;
77522;SDS011;66637;-29.628;-49.938;2023-10-08T09:41:56;92.88;;;10.40;;
77522;SDS011;66637;-29.628;-49.938;2023-10-08T09:44:27;39.30;;;5.20;;
77522;SDS011;66637;-29.628;-49.938;2023-10-08T09:49:40;52.70;;;7.13;;
77522;SDS011;66637;-29.628;-49.938;2023-10-08T09:52:21;49.10;;;6.45;;
77522;SDS011;66637;-29.628;-49.938;2023-10-08T09:55:00;45.15;;;5.85;;
77522;SDS011;66637;-29.628;-49.938;2023-10-08T09:57:34;67.13;;;8.20;;
77522;SDS011;66637;-29.628;-49.938;2023-10-08T10:00:07;58.55;;;7.82;;
77522;SDS011;66637;-29.628;-49.938;2023-10-08T10:02:44;49.28;;;6.30;;
77522;SDS011;66637;-29.628;-49.938;2023-10-08T10:05:20;37.90;;;5.60;;
77522;SDS011;66637;-29.628;-49.938;2023-10-08T10:07:51;46.97;;;5.30;;
77522;SDS011;66637;-29.628;-49.938;2023-10-08T10:10:27;58.20;;;6.75;;
77522;SDS011;66637;-29.628;-49.938;2023-10-08T10:13:09;52.60;;;8.73;;
77522;SDS011;66637;-29.628;-49.938;2023-10-08T10:15:41;83.10;;;10.93;;
77522;SDS011;66637;-29.628;-49.938;2023-10-08T10:18:16;76.53;;;8.65;;
77522;SDS011;66637;-29.628;-49.938;2023-10-08T10:21:46;73.38;;;10.52;;
77522;SDS011;66637;-29.628;-49.938;2023-10-08T10:23:57;51.58;;;7.45;;
77522;SDS011;66637;-29.628;-49.938;2023-10-08T10:31:45;81.50;;;10.23;;
77522;SDS011;66637;-29.628;-49.938;2023-10-08T10:34:24;69.13;;;9.40;;
77522;SDS011;66637;-29.628;-49.938;2023-10-08T10:36:59;58.95;;;7.05;;
77522;SDS011;66637;-29.628;-49.938;2023-10-08T10:40:01;47.10;;;5.53;;
77522;SDS011;66637;-29.628;-49.938;2023-10-08T10:42:39;42.95;;;5.38;;
77522;SDS011;66637;-29.628;-49.938;2023-10-08T10:45:13;54.25;;;5.85;;
77522;SDS011;66637;-29.628;-49.938;2023-10-08T10:48:05;51.63;;;5.55;;
77522;SDS011;66637;-29.628;-49.938;2023-10-08T10:50:50;51.22;;;5.60;;
77522;SDS011;66637;-29.628;-49.938;2023-10-08T10:53:41;58.03;;;7.88;;
77522;SDS011;66637;-29.628;-49.938;2023-10-08T10:56:35;78.40;;;9.02;;
77522;SDS011;66637;-29.628;-49.938;2023-10-08T10:59:17;58.47;;;7.72;;
77522;SDS011;66637;-29.628;-49.938;2023-10-08T11:01:56;49.38;;;5.00;;
77522;SDS011;66637;-29.628;-49.938;2023-10-08T11:04:50;48.42;;;6.32;;
77522;SDS011;66637;-29.628;-49.938;2023-10-08T11:07:22;33.20;;;4.45;;
77522;SDS011;66637;-29.628;-49.938;2023-10-08T11:09:53;57.67;;;7.00;;
77522;SDS011;66637;-29.628;-49.938;2023-10-08T11:12:24;61.33;;;6.68;;
77522;SDS011;66637;-29.628;-49.938;2023-10-08T11:15:11;43.95;;;5.28;;
77522;SDS011;66637;-29.628;-49.938;2023-10-08T11:17:46;53.88;;;6.55;;
77522;SDS011;66637;-29.628;-49.938;2023-10-08T11:20:25;38.22;;;4.30;;
77522;SDS011;66637;-29.628;-49.938;2023-10-08T11:22:56;40.45;;;4.53;;
77522;SDS011;66637;-29.628;-49.938;2023-10-08T11:25:57;25.60;;;3.35;;
77522;SDS011;66637;-29.628;-49.938;2023-10-08T11:28:33;14.80;;;2.40;;
77522;SDS011;66637;-29.628;-49.938;2023-10-08T11:31:12;23.27;;;3.55;;
77522;SDS011;66637;-29.628;-49.938;2023-10-08T11:33:46;20.48;;;2.38;;
77522;SDS011;66637;-29.628;-49.938;2023-10-08T11:36:27;16.70;;;1.95;;
77522;SDS011;66637;-29.628;-49.938;2023-10-08T11:39:08;13.98;;;1.80;;
77522;SDS011;66637;-29.628;-49.938;2023-10-08T11:42:01;10.45;;;2.03;;
77522;SDS011;66637;-29.628;-49.938;2023-10-08T11:44:33;7.38;;;1.40;;
77522;SDS011;66637;-29.628;-49.938;2023-10-08T11:47:07;11.70;;;1.70;;
77522;SDS011;66637;-29.628;-49.938;2023-10-08T11:49:51;10.00;;;1.67;;
77522;SDS011;66637;-29.628;-49.938;2023-10-08T11:52:39;7.80;;;1.10;;
77522;SDS011;66637;-29.628;-49.938;2023-10-08T11:55:12;7.10;;;1.08;;
77522;SDS011;66637;-29.628;-49.938;2023-10-08T11:57:49;9.35;;;1.30;;
77522;SDS011;66637;-29.628;-49.938;2023-10-08T12:00:20;10.60;;;1.30;;
77522;SDS011;66637;-29.628;-49.938;2023-10-08T12:03:00;8.65;;;1.20;;
77522;SDS011;66637;-29.628;-49.938;2023-10-08T12:05:31;7.85;;;1.42;;
77522;SDS011;66637;-29.628;-49.938;2023-10-08T12:08:04;6.50;;;1.17;;
77522;SDS011;66637;-29.628;-49.938;2023-10-08T12:10:37;10.30;;;1.67;;
77522;SDS011;66637;-29.628;-49.938;2023-10-08T12:13:10;9.95;;;1.38;;
77522;SDS011;66637;-29.628;-49.938;2023-10-08T12:15:44;4.82;;;1.02;;
77522;SDS011;66637;-29.628;-49.938;2023-10-08T12:18:15;8.95;;;1.23;;
77522;SDS011;66637;-29.628;-49.938;2023-10-08T12:20:58;7.70;;;1.20;;
77522;SDS011;66637;-29.628;-49.938;2023-10-08T12:23:30;6.35;;;0.93;;
77522;SDS011;66637;-29.628;-49.938;2023-10-08T12:26:03;6.47;;;1.13;;
77522;SDS011;66637;-29.628;-49.938;2023-10-08T12:28:37;6.88;;;1.05;;
77522;SDS011;66637;-29.628;-49.938;2023-10-08T12:31:08;5.53;;;0.93;;
77522;SDS011;66637;-29.628;-49.938;2023-10-08T12:33:40;8.02;;;0.90;;
77522;SDS011;66637;-29.628;-49.938;2023-10-08T12:36:11;6.38;;;1.10;;
77522;SDS011;66637;-29.628;-49.938;2023-10-08T12:38:43;4.00;;;0.70;;
77522;SDS011;66637;-29.628;-49.938;2023-10-08T12:41:13;7.57;;;1.05;;
77522;SDS011;66637;-29.628;-49.938;2023-10-08T12:43:46;5.32;;;0.80;;
77522;SDS011;66637;-29.628;-49.938;2023-10-08T12:46:21;6.68;;;0.98;;
77522;SDS011;66637;-29.628;-49.938;2023-10-08T12:48:55;8.63;;;1.15;;
77522;SDS011;66637;-29.628;-49.938;2023-10-08T12:51:27;6.15;;;0.70;;
77522;SDS011;66637;-29.628;-49.938;2023-10-08T12:54:02;4.50;;;0.82;;
77522;SDS011;66637;-29.628;-49.938;2023-10-08T12:56:36;5.13;;;0.82;;
77522;SDS011;66637;-29.628;-49.938;2023-10-08T12:59:17;4.70;;;0.93;;
77522;SDS011;66637;-29.628;-49.938;2023-10-08T13:01:50;5.30;;;1.10;;
77522;SDS011;66637;-29.628;-49.938;2023-10-08T13:04:24;4.82;;;0.88;;
77522;SDS011;66637;-29.628;-49.938;2023-10-08T13:06:58;8.45;;;1.10;;
77522;SDS011;66637;-29.628;-49.938;2023-10-08T13:09:32;6.18;;;1.10;;
77522;SDS011;66637;-29.628;-49.938;2023-10-08T13:12:05;8.30;;;1.02;;
77522;SDS011;66637;-29.628;-49.938;2023-10-08T13:14:35;6.65;;;1.38;;
77522;SDS011;66637;-29.628;-49.938;2023-10-08T13:17:07;9.45;;;1.88;;
77522;SDS011;66637;-29.628;-49.938;2023-10-08T13:19:41;9.43;;;2.47;;
77522;SDS011;66637;-29.628;-49.938;2023-10-08T13:22:12;9.13;;;1.77;;
77522;SDS011;66637;-29.628;-49.938;2023-10-08T13:24:49;7.47;;;2.05;;
77522;SDS011;66637;-29.628;-49.938;2023-10-08T13:27:20;6.65;;;1.73;;
77522;SDS011;66637;-29.628;-49.938;2023-10-08T13:29:52;6.13;;;1.50;;
77522;SDS011;66637;-29.628;-49.938;2023-10-08T13:32:24;4.90;;;1.15;;
77522;SDS011;66637;-29.628;-49.938;2023-10-08T13:34:55;5.28;;;1.40;;
77522;SDS011;66637;-29.628;-49.938;2023-10-08T13:37:28;6.78;;;1.40;;
77522;SDS011;66637;-29.628;-49.938;2023-10-08T13:39:59;4.68;;;1.15;;
77522;SDS011;66637;-29.628;-49.938;2023-10-08T13:42:29;5.43;;;1.17;;
77522;SDS011;66637;-29.628;-49.938;2023-10-08T13:45:01;6.75;;;1.02;;
77522;SDS011;66637;-29.628;-49.938;2023-10-08T13:47:38;5.90;;;1.02;;
77522;SDS011;66637;-29.628;-49.938;2023-10-08T13:50:10;7.78;;;1.40;;
77522;SDS011;66637;-29.628;-49.938;2023-10-08T13:52:42;4.32;;;1.35;;
77522;SDS011;66637;-29.628;-49.938;2023-10-08T13:55:13;9.25;;;1.27;;
77522;SDS011;66637;-29.628;-49.938;2023-10-08T13:57:46;8.88;;;1.27;;
77522;SDS011;66637;-29.628;-49.938;2023-10-08T14:00:18;4.82;;;1.10;;
77522;SDS011;66637;-29.628;-49.938;2023-10-08T14:02:55;6.80;;;1.55;;
77522;SDS011;66637;-29.628;-49.938;2023-10-08T14:05:26;10.05;;;1.67;;
77522;SDS011;66637;-29.628;-49.938;2023-10-08T14:07:58;6.72;;;1.45;;
77522;SDS011;66637;-29.628;-49.938;2023-10-08T14:10:32;7.72;;;1.33;;
77522;SDS011;66637;-29.628;-49.938;2023-10-08T14:13:02;7.07;;;1.50;;
77522;SDS011;66637;-29.628;-49.938;2023-10-08T14:15:33;5.00;;;1.17;;
77522;SDS011;66637;-29.628;-49.938;2023-10-08T14:18:11;8.60;;;1.40;;
77522;SDS011;66637;-29.628;-49.938;2023-10-08T14:20:46;6.70;;;1.17;;
77522;SDS011;66637;-29.628;-49.938;2023-10-08T14:23:17;9.00;;;1.85;;
77522;SDS011;66637;-29.628;-49.938;2023-10-08T14:25:52;8.93;;;2.08;;
77522;SDS011;66637;-29.628;-49.938;2023-10-08T14:28:33;6.00;;;0.82;;
77522;SDS011;66637;-29.628;-49.938;2023-10-08T14:31:28;5.70;;;0.95;;
77522;SDS011;66637;-29.628;-49.938;2023-10-08T14:34:01;9.82;;;1.52;;
77522;SDS011;66637;-29.628;-49.938;2023-10-08T14:36:47;8.60;;;1.42;;
77522;SDS011;66637;-29.628;-49.938;2023-10-08T14:39:38;7.45;;;1.73;;
77522;SDS011;66637;-29.628;-49.938;2023-10-08T14:42:27;6.80;;;1.83;;
77522;SDS011;66637;-29.628;-49.938;2023-10-08T14:45:16;6.13;;;2.00;;
77522;SDS011;66637;-29.628;-49.938;2023-10-08T14:47:50;8.10;;;1.58;;
77522;SDS011;66637;-29.628;-49.938;2023-10-08T14:50:25;7.13;;;1.80;;
77522;SDS011;66637;-29.628;-49.938;2023-10-08T14:53:03;6.80;;;1.90;;
77522;SDS011;66637;-29.628;-49.938;2023-10-08T14:55:35;8.00;;;2.10;;
77522;SDS011;66637;-29.628;-49.938;2023-10-08T14:58:07;7.47;;;2.20;;
77522;SDS011;66637;-29.628;-49.938;2023-10-08T15:00:38;7.85;;;2.67;;
77522;SDS011;66637;-29.628;-49.938;2023-10-08T15:03:11;10.43;;;3.17;;